sensor_id;sensor_type;location;lat;lon;timestamp;P1;durP1;ratioP1;P2;durP2;ratioP2
9254;SDS011;4663;49.120;9.730;2023-02-04T00:01:30;27.77;;;25.77;;
9254;SDS011;4663;49.120;9.730;2023-02-04T00:03:56;26.97;;;25.47;;
9254;SDS011;4663;49.120;9.730;2023-02-04T00:06:21;27.93;;;26.43;;
9254;SDS011;4663;49.120;9.730;2023-02-04T00:08:46;27.20;;;25.67;;
9254;SDS011;4663;49.120;9.730;2023-02-04T00:11:12;32.03;;;30.13;;
9254;SDS011;4663;49.120;9.730;2023-02-04T00:13:37;26.77;;;24.97;;
9254;SDS011;4663;49.120;9.730;2023-02-04T00:16:03;28.90;;;27.07;;
9254;SDS011;4663;49.120;9.730;2023-02-04T00:18:28;37.60;;;35.20;;
9254;SDS011;4663;49.120;9.730;2023-02-04T00:20:54;30.37;;;28.57;;
9254;SDS011;4663;49.120;9.730;2023-02-04T00:23:19;36.53;;;34.53;;
9254;SDS011;4663;49.120;9.730;2023-02-04T00:25:44;26.60;;;24.93;;
9254;SDS011;4663;49.120;9.730;2023-02-04T00:28:10;26.97;;;25.30;;
9254;SDS011;4663;49.120;9.730;2023-02-04T00:30:35;26.37;;;24.67;;
9254;SDS011;4663;49.120;9.730;2023-02-04T00:33:01;26.23;;;24.43;;
9254;SDS011;4663;49.120;9.730;2023-02-04T00:35:26;24.20;;;22.17;;
9254;SDS011;4663;49.120;9.730;2023-02-04T00:37:52;25.70;;;24.10;;
9254;SDS011;4663;49.120;9.730;2023-02-04T00:40:18;26.03;;;24.27;;
9254;SDS011;4663;49.120;9.730;2023-02-04T00:42:43;25.83;;;24.13;;
9254;SDS011;4663;49.120;9.730;2023-02-04T00:45:10;25.97;;;24.37;;
9254;SDS011;4663;49.120;9.730;2023-02-04T00:47:36;24.30;;;22.70;;
9254;SDS011;4663;49.120;9.730;2023-02-04T00:50:01;26.90;;;24.83;;
9254;SDS011;4663;49.120;9.730;2023-02-04T00:52:27;25.30;;;23.60;;
9254;SDS011;4663;49.120;9.730;2023-02-04T00:54:52;25.70;;;24.10;;
9254;SDS011;4663;49.120;9.730;2023-02-04T00:57:18;23.80;;;22.30;;
9254;SDS011;4663;49.120;9.730;2023-02-04T00:59:43;27.30;;;25.43;;
9254;SDS011;4663;49.120;9.730;2023-02-04T01:02:09;26.07;;;24.43;;
9254;SDS011;4663;49.120;9.730;2023-02-04T01:04:34;25.13;;;23.53;;
9254;SDS011;4663;49.120;9.730;2023-02-04T01:06:59;25.83;;;24.23;;
9254;SDS011;4663;49.120;9.730;2023-02-04T01:09:25;29.93;;;28.17;;
9254;SDS011;4663;49.120;9.730;2023-02-04T01:11:50;24.73;;;22.90;;
9254;SDS011;4663;49.120;9.730;2023-02-04T01:14:16;25.73;;;23.80;;
9254;SDS011;4663;49.120;9.730;2023-02-04T01:16:41;26.60;;;24.80;;
9254;SDS011;4663;49.120;9.730;2023-02-04T01:19:06;25.80;;;24.00;;
9254;SDS011;4663;49.120;9.730;2023-02-04T01:21:32;26.47;;;24.50;;
9254;SDS011;4663;49.120;9.730;2023-02-04T01:23:58;26.33;;;24.53;;
9254;SDS011;4663;49.120;9.730;2023-02-04T01:26:23;26.20;;;24.40;;
9254;SDS011;4663;49.120;9.730;2023-02-04T01:28:49;25.63;;;23.57;;
9254;SDS011;4663;49.120;9.730;2023-02-04T01:31:15;22.30;;;20.97;;
9254;SDS011;4663;49.120;9.730;2023-02-04T01:33:41;24.13;;;22.70;;
9254;SDS011;4663;49.120;9.730;2023-02-04T01:36:06;24.83;;;23.07;;
9254;SDS011;4663;49.120;9.730;2023-02-04T01:38:32;29.43;;;27.50;;
9254;SDS011;4663;49.120;9.730;2023-02-04T01:40:57;31.33;;;29.63;;
9254;SDS011;4663;49.120;9.730;2023-02-04T01:43:23;39.23;;;36.80;;
9254;SDS011;4663;49.120;9.730;2023-02-04T01:45:49;45.57;;;42.53;;
9254;SDS011;4663;49.120;9.730;2023-02-04T01:48:15;44.53;;;41.80;;
9254;SDS011;4663;49.120;9.730;2023-02-04T01:51:03;41.63;;;39.33;;
9254;SDS011;4663;49.120;9.730;2023-02-04T01:53:31;47.23;;;44.67;;
9254;SDS011;4663;49.120;9.730;2023-02-04T01:55:58;50.93;;;48.13;;
9254;SDS011;4663;49.120;9.730;2023-02-04T01:58:23;46.67;;;43.97;;
9254;SDS011;4663;49.120;9.730;2023-02-04T02:00:49;49.33;;;46.57;;
9254;SDS011;4663;49.120;9.730;2023-02-04T02:03:14;49.73;;;46.73;;
9254;SDS011;4663;49.120;9.730;2023-02-04T02:05:42;49.37;;;46.47;;
9254;SDS011;4663;49.120;9.730;2023-02-04T02:08:09;52.90;;;49.87;;
9254;SDS011;4663;49.120;9.730;2023-02-04T02:10:37;51.77;;;48.80;;
9254;SDS011;4663;49.120;9.730;2023-02-04T02:13:07;50.87;;;47.83;;
9254;SDS011;4663;49.120;9.730;2023-02-04T02:15:35;53.73;;;50.57;;
9254;SDS011;4663;49.120;9.730;2023-02-04T02:18:00;65.23;;;61.73;;
9254;SDS011;4663;49.120;9.730;2023-02-04T02:20:27;71.57;;;67.67;;
9254;SDS011;4663;49.120;9.730;2023-02-04T02:25:42;49.93;;;47.03;;
9254;SDS011;4663;49.120;9.730;2023-02-04T02:28:11;36.83;;;34.53;;
9254;SDS011;4663;49.120;9.730;2023-02-04T02:30:39;38.67;;;36.50;;
9254;SDS011;4663;49.120;9.730;2023-02-04T02:33:06;29.73;;;27.67;;
9254;SDS011;4663;49.120;9.730;2023-02-04T02:35:32;43.20;;;40.63;;
9254;SDS011;4663;49.120;9.730;2023-02-04T02:37:57;29.60;;;27.73;;
9254;SDS011;4663;49.120;9.730;2023-02-04T02:40:23;38.77;;;36.70;;
9254;SDS011;4663;49.120;9.730;2023-02-04T02:42:49;36.50;;;34.30;;
9254;SDS011;4663;49.120;9.730;2023-02-04T02:45:21;40.97;;;38.37;;
9254;SDS011;4663;49.120;9.730;2023-02-04T02:47:50;37.97;;;35.50;;
9254;SDS011;4663;49.120;9.730;2023-02-04T02:50:17;41.27;;;38.67;;
9254;SDS011;4663;49.120;9.730;2023-02-04T02:52:45;34.73;;;32.27;;
9254;SDS011;4663;49.120;9.730;2023-02-04T02:55:14;35.20;;;33.13;;
9254;SDS011;4663;49.120;9.730;2023-02-04T02:57:43;41.77;;;39.23;;
9254;SDS011;4663;49.120;9.730;2023-02-04T03:00:28;41.07;;;38.57;;
9254;SDS011;4663;49.120;9.730;2023-02-04T03:03:04;33.17;;;31.27;;
9254;SDS011;4663;49.120;9.730;2023-02-04T03:05:32;38.10;;;35.70;;
9254;SDS011;4663;49.120;9.730;2023-02-04T03:08:02;35.60;;;33.03;;
9254;SDS011;4663;49.120;9.730;2023-02-04T03:10:28;35.87;;;33.07;;
9254;SDS011;4663;49.120;9.730;2023-02-04T03:12:54;43.37;;;40.63;;
9254;SDS011;4663;49.120;9.730;2023-02-04T03:15:19;45.37;;;42.50;;
9254;SDS011;4663;49.120;9.730;2023-02-04T03:17:45;36.40;;;33.97;;
9254;SDS011;4663;49.120;9.730;2023-02-04T03:20:11;38.87;;;36.17;;
9254;SDS011;4663;49.120;9.730;2023-02-04T03:22:38;43.17;;;40.67;;
9254;SDS011;4663;49.120;9.730;2023-02-04T03:25:04;39.67;;;37.23;;
9254;SDS011;4663;49.120;9.730;2023-02-04T03:27:29;45.00;;;42.37;;
9254;SDS011;4663;49.120;9.730;2023-02-04T03:29:55;34.70;;;32.47;;
9254;SDS011;4663;49.120;9.730;2023-02-04T03:32:21;40.23;;;37.87;;
9254;SDS011;4663;49.120;9.730;2023-02-04T03:34:46;42.10;;;39.50;;
9254;SDS011;4663;49.120;9.730;2023-02-04T03:37:11;41.60;;;39.00;;
9254;SDS011;4663;49.120;9.730;2023-02-04T03:39:37;41.87;;;39.53;;
9254;SDS011;4663;49.120;9.730;2023-02-04T03:42:02;39.43;;;37.23;;
9254;SDS011;4663;49.120;9.730;2023-02-04T03:44:27;41.93;;;39.20;;
9254;SDS011;4663;49.120;9.730;2023-02-04T03:46:53;44.47;;;41.43;;
9254;SDS011;4663;49.120;9.730;2023-02-04T03:49:20;45.07;;;42.60;;
9254;SDS011;4663;49.120;9.730;2023-02-04T03:51:46;40.87;;;38.50;;
9254;SDS011;4663;49.120;9.730;2023-02-04T03:54:11;41.13;;;38.33;;
9254;SDS011;4663;49.120;9.730;2023-02-04T03:56:36;45.53;;;42.37;;
9254;SDS011;4663;49.120;9.730;2023-02-04T03:59:02;38.10;;;35.50;;
9254;SDS011;4663;49.120;9.730;2023-02-04T04:01:27;39.93;;;37.27;;
9254;SDS011;4663;49.120;9.730;2023-02-04T04:03:52;42.20;;;39.77;;
9254;SDS011;4663;49.120;9.730;2023-02-04T04:06:18;46.63;;;43.80;;
9254;SDS011;4663;49.120;9.730;2023-02-04T04:08:43;44.03;;;41.53;;
9254;SDS011;4663;49.120;9.730;2023-02-04T04:11:08;38.80;;;36.40;;
9254;SDS011;4663;49.120;9.730;2023-02-04T04:13:34;42.80;;;40.30;;
9254;SDS011;4663;49.120;9.730;2023-02-04T04:15:59;36.53;;;34.43;;
9254;SDS011;4663;49.120;9.730;2023-02-04T04:18:25;39.07;;;36.90;;
9254;SDS011;4663;49.120;9.730;2023-02-04T04:20:50;43.23;;;40.70;;
9254;SDS011;4663;49.120;9.730;2023-02-04T04:23:15;47.03;;;44.30;;
9254;SDS011;4663;49.120;9.730;2023-02-04T04:25:41;39.00;;;36.30;;
9254;SDS011;4663;49.120;9.730;2023-02-04T04:28:06;41.27;;;38.97;;
9254;SDS011;4663;49.120;9.730;2023-02-04T04:30:31;42.33;;;40.03;;
9254;SDS011;4663;49.120;9.730;2023-02-04T04:32:56;39.90;;;37.63;;
9254;SDS011;4663;49.120;9.730;2023-02-04T04:35:22;33.90;;;31.97;;
9254;SDS011;4663;49.120;9.730;2023-02-04T04:37:47;39.47;;;37.13;;
9254;SDS011;4663;49.120;9.730;2023-02-04T04:40:13;36.73;;;34.57;;
9254;SDS011;4663;49.120;9.730;2023-02-04T04:42:38;43.13;;;40.57;;
9254;SDS011;4663;49.120;9.730;2023-02-04T04:45:04;40.60;;;38.00;;
9254;SDS011;4663;49.120;9.730;2023-02-04T04:47:30;40.90;;;38.13;;
9254;SDS011;4663;49.120;9.730;2023-02-04T04:49:56;39.07;;;36.30;;
9254;SDS011;4663;49.120;9.730;2023-02-04T04:52:21;38.90;;;36.33;;
9254;SDS011;4663;49.120;9.730;2023-02-04T04:54:46;40.70;;;38.03;;
9254;SDS011;4663;49.120;9.730;2023-02-04T04:57:12;36.63;;;34.43;;
9254;SDS011;4663;49.120;9.730;2023-02-04T04:59:37;42.77;;;40.03;;
9254;SDS011;4663;49.120;9.730;2023-02-04T05:02:02;40.63;;;38.07;;
9254;SDS011;4663;49.120;9.730;2023-02-04T05:04:28;40.03;;;37.50;;
9254;SDS011;4663;49.120;9.730;2023-02-04T05:06:53;46.30;;;43.50;;
9254;SDS011;4663;49.120;9.730;2023-02-04T05:09:18;40.93;;;38.60;;
9254;SDS011;4663;49.120;9.730;2023-02-04T05:11:44;48.33;;;45.53;;
9254;SDS011;4663;49.120;9.730;2023-02-04T05:14:09;48.33;;;45.73;;
9254;SDS011;4663;49.120;9.730;2023-02-04T05:16:34;48.10;;;45.23;;
9254;SDS011;4663;49.120;9.730;2023-02-04T05:19:00;46.53;;;43.63;;
9254;SDS011;4663;49.120;9.730;2023-02-04T05:21:25;42.37;;;39.67;;
9254;SDS011;4663;49.120;9.730;2023-02-04T05:23:50;47.13;;;44.33;;
9254;SDS011;4663;49.120;9.730;2023-02-04T05:26:16;47.50;;;44.53;;
9254;SDS011;4663;49.120;9.730;2023-02-04T05:28:41;41.50;;;39.20;;
9254;SDS011;4663;49.120;9.730;2023-02-04T05:31:06;46.43;;;43.77;;
9254;SDS011;4663;49.120;9.730;2023-02-04T05:33:32;44.57;;;42.07;;
9254;SDS011;4663;49.120;9.730;2023-02-04T05:35:57;38.90;;;36.47;;
9254;SDS011;4663;49.120;9.730;2023-02-04T05:38:22;32.57;;;30.70;;
9254;SDS011;4663;49.120;9.730;2023-02-04T05:40:48;32.73;;;30.80;;
9254;SDS011;4663;49.120;9.730;2023-02-04T05:43:13;32.40;;;30.20;;
9254;SDS011;4663;49.120;9.730;2023-02-04T05:45:39;32.23;;;29.87;;
9254;SDS011;4663;49.120;9.730;2023-02-04T05:48:04;30.43;;;28.37;;
9254;SDS011;4663;49.120;9.730;2023-02-04T05:50:29;31.70;;;29.50;;
9254;SDS011;4663;49.120;9.730;2023-02-04T05:52:55;26.57;;;25.17;;
9254;SDS011;4663;49.120;9.730;2023-02-04T05:55:20;22.73;;;21.07;;
9254;SDS011;4663;49.120;9.730;2023-02-04T05:57:45;21.77;;;20.13;;
9254;SDS011;4663;49.120;9.730;2023-02-04T06:00:11;21.73;;;20.03;;
9254;SDS011;4663;49.120;9.730;2023-02-04T06:02:37;21.43;;;19.80;;
9254;SDS011;4663;49.120;9.730;2023-02-04T06:05:02;21.80;;;19.90;;
9254;SDS011;4663;49.120;9.730;2023-02-04T06:07:27;22.17;;;20.67;;
9254;SDS011;4663;49.120;9.730;2023-02-04T06:09:53;25.20;;;23.40;;
9254;SDS011;4663;49.120;9.730;2023-02-04T06:12:18;23.67;;;22.27;;
9254;SDS011;4663;49.120;9.730;2023-02-04T06:14:43;24.00;;;21.80;;
9254;SDS011;4663;49.120;9.730;2023-02-04T06:17:09;25.27;;;23.57;;
9254;SDS011;4663;49.120;9.730;2023-02-04T06:19:34;27.30;;;25.43;;
9254;SDS011;4663;49.120;9.730;2023-02-04T06:21:59;27.17;;;25.37;;
9254;SDS011;4663;49.120;9.730;2023-02-04T06:24:25;29.77;;;27.37;;
9254;SDS011;4663;49.120;9.730;2023-02-04T06:26:50;23.27;;;21.77;;
9254;SDS011;4663;49.120;9.730;2023-02-04T06:29:15;21.83;;;20.03;;
9254;SDS011;4663;49.120;9.730;2023-02-04T06:31:41;19.80;;;18.33;;
9254;SDS011;4663;49.120;9.730;2023-02-04T06:34:07;21.43;;;19.63;;
9254;SDS011;4663;49.120;9.730;2023-02-04T06:36:32;22.07;;;20.43;;
9254;SDS011;4663;49.120;9.730;2023-02-04T06:38:58;21.27;;;19.80;;
9254;SDS011;4663;49.120;9.730;2023-02-04T06:41:23;21.20;;;19.77;;
9254;SDS011;4663;49.120;9.730;2023-02-04T06:43:48;23.30;;;21.60;;
9254;SDS011;4663;49.120;9.730;2023-02-04T06:46:14;22.60;;;20.97;;
9254;SDS011;4663;49.120;9.730;2023-02-04T06:48:40;23.60;;;21.80;;
9254;SDS011;4663;49.120;9.730;2023-02-04T06:51:05;19.87;;;18.67;;
9254;SDS011;4663;49.120;9.730;2023-02-04T06:53:30;23.70;;;21.80;;
9254;SDS011;4663;49.120;9.730;2023-02-04T06:55:56;19.90;;;18.60;;
9254;SDS011;4663;49.120;9.730;2023-02-04T06:58:21;21.00;;;19.23;;
9254;SDS011;4663;49.120;9.730;2023-02-04T07:00:46;23.97;;;22.07;;
9254;SDS011;4663;49.120;9.730;2023-02-04T07:03:12;22.03;;;20.70;;
9254;SDS011;4663;49.120;9.730;2023-02-04T07:05:37;21.83;;;20.20;;
9254;SDS011;4663;49.120;9.730;2023-02-04T07:08:02;22.93;;;21.33;;
9254;SDS011;4663;49.120;9.730;2023-02-04T07:10:28;21.90;;;20.10;;
9254;SDS011;4663;49.120;9.730;2023-02-04T07:12:53;24.50;;;22.67;;
9254;SDS011;4663;49.120;9.730;2023-02-04T07:15:19;23.70;;;22.40;;
9254;SDS011;4663;49.120;9.730;2023-02-04T07:17:44;26.30;;;24.33;;
9254;SDS011;4663;49.120;9.730;2023-02-04T07:20:10;27.83;;;26.03;;
9254;SDS011;4663;49.120;9.730;2023-02-04T07:22:36;26.93;;;25.13;;
9254;SDS011;4663;49.120;9.730;2023-02-04T07:25:01;31.67;;;29.60;;
9254;SDS011;4663;49.120;9.730;2023-02-04T07:27:26;33.33;;;30.83;;
9254;SDS011;4663;49.120;9.730;2023-02-04T07:29:52;33.77;;;32.03;;
9254;SDS011;4663;49.120;9.730;2023-02-04T07:32:17;40.47;;;37.63;;
9254;SDS011;4663;49.120;9.730;2023-02-04T07:34:42;35.73;;;33.60;;
9254;SDS011;4663;49.120;9.730;2023-02-04T07:37:08;39.23;;;36.97;;
9254;SDS011;4663;49.120;9.730;2023-02-04T07:39:33;34.63;;;32.57;;
9254;SDS011;4663;49.120;9.730;2023-02-04T07:41:58;34.53;;;32.33;;
9254;SDS011;4663;49.120;9.730;2023-02-04T07:44:24;37.40;;;34.87;;
9254;SDS011;4663;49.120;9.730;2023-02-04T07:46:49;34.67;;;32.37;;
9254;SDS011;4663;49.120;9.730;2023-02-04T07:49:14;37.10;;;34.30;;
9254;SDS011;4663;49.120;9.730;2023-02-04T07:51:40;36.77;;;34.03;;
9254;SDS011;4663;49.120;9.730;2023-02-04T07:54:05;34.83;;;31.97;;
9254;SDS011;4663;49.120;9.730;2023-02-04T07:56:30;33.10;;;30.57;;
9254;SDS011;4663;49.120;9.730;2023-02-04T07:58:56;32.33;;;30.33;;
9254;SDS011;4663;49.120;9.730;2023-02-04T08:01:21;30.57;;;28.30;;
9254;SDS011;4663;49.120;9.730;2023-02-04T08:03:46;33.33;;;31.03;;
9254;SDS011;4663;49.120;9.730;2023-02-04T08:06:12;32.10;;;30.00;;
9254;SDS011;4663;49.120;9.730;2023-02-04T08:08:37;28.57;;;26.43;;
9254;SDS011;4663;49.120;9.730;2023-02-04T08:11:02;30.27;;;27.63;;
9254;SDS011;4663;49.120;9.730;2023-02-04T08:13:28;28.10;;;26.00;;
9254;SDS011;4663;49.120;9.730;2023-02-04T08:15:53;28.53;;;26.60;;
9254;SDS011;4663;49.120;9.730;2023-02-04T08:18:18;27.93;;;25.83;;
9254;SDS011;4663;49.120;9.730;2023-02-04T08:20:44;31.37;;;29.10;;
9254;SDS011;4663;49.120;9.730;2023-02-04T08:23:09;31.63;;;29.30;;
9254;SDS011;4663;49.120;9.730;2023-02-04T08:25:35;31.03;;;28.83;;
9254;SDS011;4663;49.120;9.730;2023-02-04T08:28:00;30.73;;;28.33;;
9254;SDS011;4663;49.120;9.730;2023-02-04T08:30:26;31.60;;;29.40;;
9254;SDS011;4663;49.120;9.730;2023-02-04T08:32:52;29.07;;;26.60;;
9254;SDS011;4663;49.120;9.730;2023-02-04T08:35:17;32.87;;;30.17;;
9254;SDS011;4663;49.120;9.730;2023-02-04T08:37:42;27.97;;;26.10;;
9254;SDS011;4663;49.120;9.730;2023-02-04T08:40:08;33.40;;;30.90;;
9254;SDS011;4663;49.120;9.730;2023-02-04T08:42:34;31.10;;;28.87;;
9254;SDS011;4663;49.120;9.730;2023-02-04T08:44:59;35.10;;;32.47;;
9254;SDS011;4663;49.120;9.730;2023-02-04T08:47:25;33.30;;;30.83;;
9254;SDS011;4663;49.120;9.730;2023-02-04T08:49:50;38.60;;;35.27;;
9254;SDS011;4663;49.120;9.730;2023-02-04T08:52:16;41.43;;;38.83;;
9254;SDS011;4663;49.120;9.730;2023-02-04T08:54:41;44.60;;;41.27;;
9254;SDS011;4663;49.120;9.730;2023-02-04T08:57:07;46.23;;;43.03;;
9254;SDS011;4663;49.120;9.730;2023-02-04T08:59:32;45.33;;;42.13;;
9254;SDS011;4663;49.120;9.730;2023-02-04T09:01:57;46.37;;;43.20;;
9254;SDS011;4663;49.120;9.730;2023-02-04T09:04:23;50.93;;;48.00;;
9254;SDS011;4663;49.120;9.730;2023-02-04T09:06:49;48.90;;;46.07;;
9254;SDS011;4663;49.120;9.730;2023-02-04T09:09:14;49.47;;;46.17;;
9254;SDS011;4663;49.120;9.730;2023-02-04T09:11:40;47.13;;;44.47;;
9254;SDS011;4663;49.120;9.730;2023-02-04T09:14:05;42.23;;;39.63;;
9254;SDS011;4663;49.120;9.730;2023-02-04T09:16:31;42.73;;;39.77;;
9254;SDS011;4663;49.120;9.730;2023-02-04T09:18:56;39.73;;;37.33;;
9254;SDS011;4663;49.120;9.730;2023-02-04T09:21:26;36.93;;;33.93;;
9254;SDS011;4663;49.120;9.730;2023-02-04T09:23:51;36.67;;;34.13;;
9254;SDS011;4663;49.120;9.730;2023-02-04T09:26:17;34.10;;;31.60;;
9254;SDS011;4663;49.120;9.730;2023-02-04T09:28:42;33.70;;;31.47;;
9254;SDS011;4663;49.120;9.730;2023-02-04T09:31:07;30.40;;;28.40;;
9254;SDS011;4663;49.120;9.730;2023-02-04T09:33:34;29.57;;;27.33;;
9254;SDS011;4663;49.120;9.730;2023-02-04T09:36:00;31.47;;;28.97;;
9254;SDS011;4663;49.120;9.730;2023-02-04T09:38:25;31.13;;;28.83;;
9254;SDS011;4663;49.120;9.730;2023-02-04T09:41:02;27.20;;;25.47;;
9254;SDS011;4663;49.120;9.730;2023-02-04T09:43:31;30.07;;;27.80;;
9254;SDS011;4663;49.120;9.730;2023-02-04T09:46:04;32.30;;;29.77;;
9254;SDS011;4663;49.120;9.730;2023-02-04T09:48:31;32.33;;;29.83;;
9254;SDS011;4663;49.120;9.730;2023-02-04T09:51:02;30.57;;;28.23;;
9254;SDS011;4663;49.120;9.730;2023-02-04T09:53:30;30.60;;;28.13;;
9254;SDS011;4663;49.120;9.730;2023-02-04T09:55:56;28.27;;;26.23;;
9254;SDS011;4663;49.120;9.730;2023-02-04T09:58:22;25.37;;;23.67;;
9254;SDS011;4663;49.120;9.730;2023-02-04T10:00:57;31.67;;;29.60;;
9254;SDS011;4663;49.120;9.730;2023-02-04T10:03:25;34.73;;;32.47;;
9254;SDS011;4663;49.120;9.730;2023-02-04T10:05:51;34.67;;;32.60;;
9254;SDS011;4663;49.120;9.730;2023-02-04T10:08:18;35.03;;;32.63;;
9254;SDS011;4663;49.120;9.730;2023-02-04T10:10:45;36.03;;;33.60;;
9254;SDS011;4663;49.120;9.730;2023-02-04T10:13:17;35.27;;;32.73;;
9254;SDS011;4663;49.120;9.730;2023-02-04T10:15:52;33.43;;;31.10;;
9254;SDS011;4663;49.120;9.730;2023-02-04T10:18:19;24.37;;;22.80;;
9254;SDS011;4663;49.120;9.730;2023-02-04T10:20:51;24.60;;;22.73;;
9254;SDS011;4663;49.120;9.730;2023-02-04T10:23:20;20.60;;;18.57;;
9254;SDS011;4663;49.120;9.730;2023-02-04T10:25:46;19.17;;;16.27;;
9254;SDS011;4663;49.120;9.730;2023-02-04T10:28:11;15.37;;;13.73;;
9254;SDS011;4663;49.120;9.730;2023-02-04T10:30:37;14.97;;;13.47;;
9254;SDS011;4663;49.120;9.730;2023-02-04T10:33:12;14.43;;;13.00;;
9254;SDS011;4663;49.120;9.730;2023-02-04T10:35:48;14.93;;;13.63;;
9254;SDS011;4663;49.120;9.730;2023-02-04T10:38:15;14.17;;;12.50;;
9254;SDS011;4663;49.120;9.730;2023-02-04T10:40:41;14.03;;;12.53;;
9254;SDS011;4663;49.120;9.730;2023-02-04T10:43:14;17.53;;;12.90;;
9254;SDS011;4663;49.120;9.730;2023-02-04T10:45:43;15.33;;;13.93;;
9254;SDS011;4663;49.120;9.730;2023-02-04T10:48:18;15.03;;;13.50;;
9254;SDS011;4663;49.120;9.730;2023-02-04T10:50:44;15.03;;;12.83;;
9254;SDS011;4663;49.120;9.730;2023-02-04T10:53:11;13.00;;;11.90;;
9254;SDS011;4663;49.120;9.730;2023-02-04T10:55:59;13.97;;;12.73;;
9254;SDS011;4663;49.120;9.730;2023-02-04T10:58:27;15.60;;;12.63;;
9254;SDS011;4663;49.120;9.730;2023-02-04T11:00:53;14.23;;;12.80;;
9254;SDS011;4663;49.120;9.730;2023-02-04T11:03:22;14.13;;;12.87;;
9254;SDS011;4663;49.120;9.730;2023-02-04T11:05:50;13.70;;;12.27;;
9254;SDS011;4663;49.120;9.730;2023-02-04T11:08:20;14.13;;;12.10;;
9254;SDS011;4663;49.120;9.730;2023-02-04T11:10:48;16.43;;;14.77;;
9254;SDS011;4663;49.120;9.730;2023-02-04T11:13:22;21.17;;;12.80;;
9254;SDS011;4663;49.120;9.730;2023-02-04T11:16:06;14.30;;;12.53;;
9254;SDS011;4663;49.120;9.730;2023-02-04T11:22:02;15.10;;;13.60;;
9254;SDS011;4663;49.120;9.730;2023-02-04T11:26:36;16.37;;;14.97;;
9254;SDS011;4663;49.120;9.730;2023-02-04T11:39:26;29.93;;;28.10;;
9254;SDS011;4663;49.120;9.730;2023-02-04T11:41:57;26.70;;;25.13;;
9254;SDS011;4663;49.120;9.730;2023-02-04T11:44:23;26.23;;;24.37;;
9254;SDS011;4663;49.120;9.730;2023-02-04T11:46:50;25.47;;;23.97;;
9254;SDS011;4663;49.120;9.730;2023-02-04T11:49:19;25.37;;;23.43;;
9254;SDS011;4663;49.120;9.730;2023-02-04T11:51:46;25.00;;;23.17;;
9254;SDS011;4663;49.120;9.730;2023-02-04T11:54:12;23.60;;;22.10;;
9254;SDS011;4663;49.120;9.730;2023-02-04T11:56:40;27.47;;;25.63;;
9254;SDS011;4663;49.120;9.730;2023-02-04T11:59:07;27.00;;;25.27;;
9254;SDS011;4663;49.120;9.730;2023-02-04T12:01:35;28.40;;;26.50;;
9254;SDS011;4663;49.120;9.730;2023-02-04T12:04:01;27.87;;;26.17;;
9254;SDS011;4663;49.120;9.730;2023-02-04T12:06:32;29.77;;;27.87;;
9254;SDS011;4663;49.120;9.730;2023-02-04T12:09:45;29.17;;;27.13;;
9254;SDS011;4663;49.120;9.730;2023-02-04T12:11:50;33.33;;;31.23;;
9254;SDS011;4663;49.120;9.730;2023-02-04T12:14:17;35.57;;;33.57;;
9254;SDS011;4663;49.120;9.730;2023-02-04T12:16:47;35.23;;;33.03;;
9254;SDS011;4663;49.120;9.730;2023-02-04T12:19:16;30.23;;;28.37;;
9254;SDS011;4663;49.120;9.730;2023-02-04T12:21:42;29.53;;;27.57;;
9254;SDS011;4663;49.120;9.730;2023-02-04T12:24:07;31.53;;;29.70;;
9254;SDS011;4663;49.120;9.730;2023-02-04T12:26:33;32.93;;;30.97;;
9254;SDS011;4663;49.120;9.730;2023-02-04T12:28:58;38.20;;;35.73;;
9254;SDS011;4663;49.120;9.730;2023-02-04T12:31:26;36.47;;;34.23;;
9254;SDS011;4663;49.120;9.730;2023-02-04T12:33:52;33.23;;;31.47;;
9254;SDS011;4663;49.120;9.730;2023-02-04T12:36:18;33.77;;;31.83;;
9254;SDS011;4663;49.120;9.730;2023-02-04T12:38:44;38.73;;;36.23;;
9254;SDS011;4663;49.120;9.730;2023-02-04T12:41:09;38.80;;;36.30;;
9254;SDS011;4663;49.120;9.730;2023-02-04T12:43:34;35.63;;;33.70;;
9254;SDS011;4663;49.120;9.730;2023-02-04T12:46:00;38.23;;;36.03;;
9254;SDS011;4663;49.120;9.730;2023-02-04T12:48:25;40.17;;;38.03;;
9254;SDS011;4663;49.120;9.730;2023-02-04T12:50:51;45.43;;;43.03;;
9254;SDS011;4663;49.120;9.730;2023-02-04T12:53:16;40.03;;;38.07;;
9254;SDS011;4663;49.120;9.730;2023-02-04T12:55:41;41.87;;;39.77;;
9254;SDS011;4663;49.120;9.730;2023-02-04T12:58:07;46.70;;;44.37;;
9254;SDS011;4663;49.120;9.730;2023-02-04T13:00:32;40.37;;;38.20;;
9254;SDS011;4663;49.120;9.730;2023-02-04T13:02:57;40.13;;;37.87;;
9254;SDS011;4663;49.120;9.730;2023-02-04T13:05:23;43.03;;;40.80;;
9254;SDS011;4663;49.120;9.730;2023-02-04T13:07:48;43.83;;;41.73;;
9254;SDS011;4663;49.120;9.730;2023-02-04T13:10:14;41.00;;;38.83;;
9254;SDS011;4663;49.120;9.730;2023-02-04T13:12:40;35.03;;;33.00;;
9254;SDS011;4663;49.120;9.730;2023-02-04T13:15:05;29.70;;;28.17;;
9254;SDS011;4663;49.120;9.730;2023-02-04T13:17:31;32.23;;;29.93;;
9254;SDS011;4663;49.120;9.730;2023-02-04T13:19:57;29.73;;;27.27;;
9254;SDS011;4663;49.120;9.730;2023-02-04T13:22:24;27.63;;;26.13;;
9254;SDS011;4663;49.120;9.730;2023-02-04T13:24:49;31.27;;;29.50;;
9254;SDS011;4663;49.120;9.730;2023-02-04T13:27:15;34.70;;;32.87;;
9254;SDS011;4663;49.120;9.730;2023-02-04T13:29:40;35.80;;;33.73;;
9254;SDS011;4663;49.120;9.730;2023-02-04T13:32:05;38.87;;;36.67;;
9254;SDS011;4663;49.120;9.730;2023-02-04T13:34:31;32.30;;;30.53;;
9254;SDS011;4663;49.120;9.730;2023-02-04T13:36:56;26.47;;;24.97;;
9254;SDS011;4663;49.120;9.730;2023-02-04T13:39:22;23.77;;;22.40;;
9254;SDS011;4663;49.120;9.730;2023-02-04T13:41:47;21.13;;;20.00;;
9254;SDS011;4663;49.120;9.730;2023-02-04T13:44:13;22.80;;;21.50;;
9254;SDS011;4663;49.120;9.730;2023-02-04T13:46:38;20.33;;;19.17;;
9254;SDS011;4663;49.120;9.730;2023-02-04T13:49:04;18.87;;;17.40;;
9254;SDS011;4663;49.120;9.730;2023-02-04T13:51:29;17.23;;;16.13;;
9254;SDS011;4663;49.120;9.730;2023-02-04T13:53:54;16.73;;;15.40;;
9254;SDS011;4663;49.120;9.730;2023-02-04T13:56:20;14.80;;;13.80;;
9254;SDS011;4663;49.120;9.730;2023-02-04T13:58:45;14.93;;;13.93;;
9254;SDS011;4663;49.120;9.730;2023-02-04T14:01:11;15.00;;;13.97;;
9254;SDS011;4663;49.120;9.730;2023-02-04T14:03:38;13.70;;;12.57;;
9254;SDS011;4663;49.120;9.730;2023-02-04T14:06:04;12.77;;;11.90;;
9254;SDS011;4663;49.120;9.730;2023-02-04T14:08:30;13.37;;;12.47;;
9254;SDS011;4663;49.120;9.730;2023-02-04T14:10:55;13.57;;;12.67;;
9254;SDS011;4663;49.120;9.730;2023-02-04T14:13:21;13.00;;;11.87;;
9254;SDS011;4663;49.120;9.730;2023-02-04T14:15:46;13.60;;;12.60;;
9254;SDS011;4663;49.120;9.730;2023-02-04T14:18:12;13.47;;;12.47;;
9254;SDS011;4663;49.120;9.730;2023-02-04T14:20:37;12.90;;;11.90;;
9254;SDS011;4663;49.120;9.730;2023-02-04T14:23:03;12.90;;;11.80;;
9254;SDS011;4663;49.120;9.730;2023-02-04T14:25:29;20.20;;;18.50;;
9254;SDS011;4663;49.120;9.730;2023-02-04T14:27:55;14.23;;;13.13;;
9254;SDS011;4663;49.120;9.730;2023-02-04T14:30:22;15.70;;;14.50;;
9254;SDS011;4663;49.120;9.730;2023-02-04T14:32:49;16.43;;;15.13;;
9254;SDS011;4663;49.120;9.730;2023-02-04T14:35:15;22.93;;;21.20;;
9254;SDS011;4663;49.120;9.730;2023-02-04T14:37:41;23.30;;;22.07;;
9254;SDS011;4663;49.120;9.730;2023-02-04T14:40:07;26.50;;;25.20;;
9254;SDS011;4663;49.120;9.730;2023-02-04T14:42:34;28.77;;;27.20;;
9254;SDS011;4663;49.120;9.730;2023-02-04T14:45:01;30.70;;;28.83;;
9254;SDS011;4663;49.120;9.730;2023-02-04T14:47:33;29.43;;;27.90;;
9254;SDS011;4663;49.120;9.730;2023-02-04T14:49:59;28.23;;;26.77;;
9254;SDS011;4663;49.120;9.730;2023-02-04T14:52:25;24.27;;;22.93;;
9254;SDS011;4663;49.120;9.730;2023-02-04T14:54:50;23.03;;;21.83;;
9254;SDS011;4663;49.120;9.730;2023-02-04T14:57:15;22.50;;;21.30;;
9254;SDS011;4663;49.120;9.730;2023-02-04T14:59:41;20.53;;;19.43;;
9254;SDS011;4663;49.120;9.730;2023-02-04T15:02:08;20.37;;;19.27;;